sensor_id;sensor_type;location;lat;lon;timestamp;temperature;humidity
74661;SHT31;63191;39.566;2.654;2023-05-07T00:00:57;21.66;48.31
74661;SHT31;63191;39.566;2.654;2023-05-07T00:03:24;21.65;48.27
74661;SHT31;63191;39.566;2.654;2023-05-07T00:05:51;21.64;48.14
74661;SHT31;63191;39.566;2.654;2023-05-07T00:08:18;21.62;48.12
74661;SHT31;63191;39.566;2.654;2023-05-07T00:10:44;21.61;47.90
74661;SHT31;63191;39.566;2.654;2023-05-07T00:13:10;21.60;47.53
74661;SHT31;63191;39.566;2.654;2023-05-07T00:15:35;21.59;47.32
74661;SHT31;63191;39.566;2.654;2023-05-07T00:18:02;21.58;47.27
74661;SHT31;63191;39.566;2.654;2023-05-07T00:20:28;21.57;47.23
74661;SHT31;63191;39.566;2.654;2023-05-07T00:22:54;21.56;47.29
74661;SHT31;63191;39.566;2.654;2023-05-07T00:25:19;21.53;47.26
74661;SHT31;63191;39.566;2.654;2023-05-07T00:27:45;21.51;47.17
74661;SHT31;63191;39.566;2.654;2023-05-07T00:30:11;21.49;46.65
74661;SHT31;63191;39.566;2.654;2023-05-07T00:32:37;21.47;46.59
74661;SHT31;63191;39.566;2.654;2023-05-07T00:35:04;21.46;46.14
74661;SHT31;63191;39.566;2.654;2023-05-07T00:37:30;21.45;45.01
74661;SHT31;63191;39.566;2.654;2023-05-07T00:39:56;21.45;44.63
74661;SHT31;63191;39.566;2.654;2023-05-07T00:42:22;21.46;43.87
74661;SHT31;63191;39.566;2.654;2023-05-07T00:44:49;21.47;43.50
74661;SHT31;63191;39.566;2.654;2023-05-07T00:47:15;21.47;43.32
74661;SHT31;63191;39.566;2.654;2023-05-07T00:49:42;21.45;42.87
74661;SHT31;63191;39.566;2.654;2023-05-07T00:52:14;21.45;42.53
74661;SHT31;63191;39.566;2.654;2023-05-07T00:54:41;21.42;42.40
74661;SHT31;63191;39.566;2.654;2023-05-07T00:57:11;21.40;42.39
74661;SHT31;63191;39.566;2.654;2023-05-07T00:59:37;21.37;42.64
74661;SHT31;63191;39.566;2.654;2023-05-07T01:02:03;21.33;42.56
74661;SHT31;63191;39.566;2.654;2023-05-07T01:04:30;21.29;42.60
74661;SHT31;63191;39.566;2.654;2023-05-07T01:06:56;21.26;42.63
74661;SHT31;63191;39.566;2.654;2023-05-07T01:09:24;21.22;42.88
74661;SHT31;63191;39.566;2.654;2023-05-07T01:11:50;21.18;43.39
74661;SHT31;63191;39.566;2.654;2023-05-07T01:14:17;21.16;43.99
74661;SHT31;63191;39.566;2.654;2023-05-07T01:16:45;21.13;44.51
74661;SHT31;63191;39.566;2.654;2023-05-07T01:19:12;21.10;44.78
74661;SHT31;63191;39.566;2.654;2023-05-07T01:21:43;21.07;45.00
74661;SHT31;63191;39.566;2.654;2023-05-07T01:24:12;21.05;45.23
74661;SHT31;63191;39.566;2.654;2023-05-07T01:26:39;21.02;45.73
74661;SHT31;63191;39.566;2.654;2023-05-07T01:29:05;21.00;46.19
74661;SHT31;63191;39.566;2.654;2023-05-07T01:31:32;20.98;46.44
74661;SHT31;63191;39.566;2.654;2023-05-07T01:34:01;20.95;46.83
74661;SHT31;63191;39.566;2.654;2023-05-07T01:36:29;20.92;47.28
74661;SHT31;63191;39.566;2.654;2023-05-07T01:38:57;20.89;47.66
74661;SHT31;63191;39.566;2.654;2023-05-07T01:41:24;20.83;47.72
74661;SHT31;63191;39.566;2.654;2023-05-07T01:43:50;20.81;47.67
74661;SHT31;63191;39.566;2.654;2023-05-07T01:46:17;20.76;47.88
74661;SHT31;63191;39.566;2.654;2023-05-07T01:48:44;20.72;48.10
74661;SHT31;63191;39.566;2.654;2023-05-07T01:51:11;20.69;48.63
74661;SHT31;63191;39.566;2.654;2023-05-07T01:53:38;20.66;49.36
74661;SHT31;63191;39.566;2.654;2023-05-07T01:56:06;20.61;50.03
74661;SHT31;63191;39.566;2.654;2023-05-07T01:58:32;20.56;50.38
74661;SHT31;63191;39.566;2.654;2023-05-07T02:00:58;20.53;51.23
74661;SHT31;63191;39.566;2.654;2023-05-07T02:03:25;20.47;52.02
74661;SHT31;63191;39.566;2.654;2023-05-07T02:05:51;20.43;52.57
74661;SHT31;63191;39.566;2.654;2023-05-07T02:08:17;20.38;52.78
74661;SHT31;63191;39.566;2.654;2023-05-07T02:10:42;20.33;52.97
74661;SHT31;63191;39.566;2.654;2023-05-07T02:13:08;20.30;53.22
74661;SHT31;63191;39.566;2.654;2023-05-07T02:15:34;20.28;53.45
74661;SHT31;63191;39.566;2.654;2023-05-07T02:20:32;20.25;54.17
74661;SHT31;63191;39.566;2.654;2023-05-07T02:22:58;20.26;54.32
74661;SHT31;63191;39.566;2.654;2023-05-07T02:25:24;20.25;54.36
74661;SHT31;63191;39.566;2.654;2023-05-07T02:27:50;20.26;54.41
74661;SHT31;63191;39.566;2.654;2023-05-07T02:30:15;20.25;54.26
74661;SHT31;63191;39.566;2.654;2023-05-07T02:32:41;20.26;54.34
74661;SHT31;63191;39.566;2.654;2023-05-07T02:35:07;20.25;54.39
74661;SHT31;63191;39.566;2.654;2023-05-07T02:37:33;20.25;54.44
74661;SHT31;63191;39.566;2.654;2023-05-07T02:39:59;20.24;54.47
74661;SHT31;63191;39.566;2.654;2023-05-07T02:42:25;20.23;54.44
74661;SHT31;63191;39.566;2.654;2023-05-07T02:44:50;20.22;54.48
74661;SHT31;63191;39.566;2.654;2023-05-07T02:47:16;20.19;54.42
74661;SHT31;63191;39.566;2.654;2023-05-07T02:49:42;20.18;54.47
74661;SHT31;63191;39.566;2.654;2023-05-07T02:52:08;20.17;54.42
74661;SHT31;63191;39.566;2.654;2023-05-07T02:54:34;20.16;54.40
74661;SHT31;63191;39.566;2.654;2023-05-07T02:57:00;20.14;54.46
74661;SHT31;63191;39.566;2.654;2023-05-07T02:59:27;20.13;54.56
74661;SHT31;63191;39.566;2.654;2023-05-07T03:01:52;20.10;54.62
74661;SHT31;63191;39.566;2.654;2023-05-07T03:04:19;20.07;54.77
74661;SHT31;63191;39.566;2.654;2023-05-07T03:06:45;20.05;54.91
74661;SHT31;63191;39.566;2.654;2023-05-07T03:09:12;20.02;55.03
74661;SHT31;63191;39.566;2.654;2023-05-07T03:11:38;20.01;55.23
74661;SHT31;63191;39.566;2.654;2023-05-07T03:14:04;19.97;55.54
74661;SHT31;63191;39.566;2.654;2023-05-07T03:16:29;19.95;55.83
74661;SHT31;63191;39.566;2.654;2023-05-07T03:18:57;19.91;56.21
74661;SHT31;63191;39.566;2.654;2023-05-07T03:21:22;19.89;56.52
74661;SHT31;63191;39.566;2.654;2023-05-07T03:23:49;19.86;56.96
74661;SHT31;63191;39.566;2.654;2023-05-07T03:26:15;19.83;57.63
74661;SHT31;63191;39.566;2.654;2023-05-07T03:28:40;19.80;58.10
74661;SHT31;63191;39.566;2.654;2023-05-07T03:31:06;19.78;58.41
74661;SHT31;63191;39.566;2.654;2023-05-07T03:33:35;19.76;59.02
74661;SHT31;63191;39.566;2.654;2023-05-07T03:36:12;19.73;59.79
74661;SHT31;63191;39.566;2.654;2023-05-07T03:38:39;19.72;60.34
74661;SHT31;63191;39.566;2.654;2023-05-07T03:41:06;19.70;60.92
74661;SHT31;63191;39.566;2.654;2023-05-07T03:43:31;19.69;61.46
74661;SHT31;63191;39.566;2.654;2023-05-07T03:45:57;19.66;61.72
74661;SHT31;63191;39.566;2.654;2023-05-07T03:48:23;19.64;62.05
74661;SHT31;63191;39.566;2.654;2023-05-07T03:50:48;19.64;62.34
74661;SHT31;63191;39.566;2.654;2023-05-07T03:53:14;19.63;62.50
74661;SHT31;63191;39.566;2.654;2023-05-07T03:55:40;19.63;62.67
74661;SHT31;63191;39.566;2.654;2023-05-07T03:58:05;19.66;62.88
74661;SHT31;63191;39.566;2.654;2023-05-07T04:00:31;19.67;62.96
74661;SHT31;63191;39.566;2.654;2023-05-07T04:03:02;19.68;63.13
74661;SHT31;63191;39.566;2.654;2023-05-07T04:05:29;19.68;63.30
74661;SHT31;63191;39.566;2.654;2023-05-07T04:07:55;19.68;63.48
74661;SHT31;63191;39.566;2.654;2023-05-07T04:10:23;19.66;63.60
74661;SHT31;63191;39.566;2.654;2023-05-07T04:12:50;19.64;63.76
74661;SHT31;63191;39.566;2.654;2023-05-07T04:15:16;19.63;63.94
74661;SHT31;63191;39.566;2.654;2023-05-07T04:17:42;19.61;64.23
74661;SHT31;63191;39.566;2.654;2023-05-07T04:20:13;19.58;64.19
74661;SHT31;63191;39.566;2.654;2023-05-07T04:22:41;19.55;64.30
74661;SHT31;63191;39.566;2.654;2023-05-07T04:25:07;19.54;64.34
74661;SHT31;63191;39.566;2.654;2023-05-07T04:27:35;19.52;64.42
74661;SHT31;63191;39.566;2.654;2023-05-07T04:30:01;19.53;64.59
74661;SHT31;63191;39.566;2.654;2023-05-07T04:32:28;19.52;64.74
74661;SHT31;63191;39.566;2.654;2023-05-07T04:34:57;19.51;64.99
74661;SHT31;63191;39.566;2.654;2023-05-07T04:37:25;19.49;65.02
74661;SHT31;63191;39.566;2.654;2023-05-07T04:39:51;19.47;65.26
74661;SHT31;63191;39.566;2.654;2023-05-07T04:42:17;19.46;65.53
74661;SHT31;63191;39.566;2.654;2023-05-07T04:44:44;19.43;65.77
74661;SHT31;63191;39.566;2.654;2023-05-07T04:47:11;19.43;65.85
74661;SHT31;63191;39.566;2.654;2023-05-07T04:49:38;19.42;65.99
74661;SHT31;63191;39.566;2.654;2023-05-07T04:52:04;19.39;66.17
74661;SHT31;63191;39.566;2.654;2023-05-07T04:54:30;19.37;66.20
74661;SHT31;63191;39.566;2.654;2023-05-07T04:56:56;19.36;66.24
74661;SHT31;63191;39.566;2.654;2023-05-07T04:59:21;19.33;66.27
74661;SHT31;63191;39.566;2.654;2023-05-07T05:01:47;19.32;66.37
74661;SHT31;63191;39.566;2.654;2023-05-07T05:04:13;19.31;66.42
74661;SHT31;63191;39.566;2.654;2023-05-07T05:06:39;19.31;66.41
74661;SHT31;63191;39.566;2.654;2023-05-07T05:09:05;19.31;66.41
74661;SHT31;63191;39.566;2.654;2023-05-07T05:11:31;19.33;66.31
74661;SHT31;63191;39.566;2.654;2023-05-07T05:13:59;19.36;66.18
74661;SHT31;63191;39.566;2.654;2023-05-07T05:16:25;19.43;66.09
74661;SHT31;63191;39.566;2.654;2023-05-07T05:18:51;19.53;65.96
74661;SHT31;63191;39.566;2.654;2023-05-07T05:21:20;19.65;65.75
74661;SHT31;63191;39.566;2.654;2023-05-07T05:23:46;19.73;65.48
74661;SHT31;63191;39.566;2.654;2023-05-07T05:26:12;19.86;65.18
74661;SHT31;63191;39.566;2.654;2023-05-07T05:28:39;20.14;64.81
74661;SHT31;63191;39.566;2.654;2023-05-07T05:31:05;20.56;64.22
74661;SHT31;63191;39.566;2.654;2023-05-07T05:33:31;21.03;63.35
74661;SHT31;63191;39.566;2.654;2023-05-07T05:35:57;21.47;62.50
74661;SHT31;63191;39.566;2.654;2023-05-07T05:38:22;21.95;61.49
74661;SHT31;63191;39.566;2.654;2023-05-07T05:40:48;22.42;60.38
74661;SHT31;63191;39.566;2.654;2023-05-07T05:43:14;22.93;59.19
74661;SHT31;63191;39.566;2.654;2023-05-07T05:45:41;23.39;58.11
74661;SHT31;63191;39.566;2.654;2023-05-07T05:48:07;23.83;56.97
74661;SHT31;63191;39.566;2.654;2023-05-07T05:50:33;24.31;55.76
74661;SHT31;63191;39.566;2.654;2023-05-07T05:53:01;24.43;54.93
74661;SHT31;63191;39.566;2.654;2023-05-07T05:55:27;24.31;54.66
74661;SHT31;63191;39.566;2.654;2023-05-07T05:57:55;24.47;54.59
74661;SHT31;63191;39.566;2.654;2023-05-07T06:00:22;24.95;54.19
74661;SHT31;63191;39.566;2.654;2023-05-07T06:02:48;25.46;53.55
74661;SHT31;63191;39.566;2.654;2023-05-07T06:05:14;26.04;52.67
74661;SHT31;63191;39.566;2.654;2023-05-07T06:07:40;26.65;51.63
74661;SHT31;63191;39.566;2.654;2023-05-07T06:10:06;27.23;49.71
74661;SHT31;63191;39.566;2.654;2023-05-07T06:12:32;27.65;48.44
74661;SHT31;63191;39.566;2.654;2023-05-07T06:14:58;28.08;48.03
74661;SHT31;63191;39.566;2.654;2023-05-07T06:17:24;28.63;47.34
74661;SHT31;63191;39.566;2.654;2023-05-07T06:19:49;29.22;46.15
74661;SHT31;63191;39.566;2.654;2023-05-07T06:22:16;29.81;45.14
74661;SHT31;63191;39.566;2.654;2023-05-07T06:24:41;30.35;43.88
74661;SHT31;63191;39.566;2.654;2023-05-07T06:27:07;30.81;42.87
74661;SHT31;63191;39.566;2.654;2023-05-07T06:29:33;31.29;41.99
74661;SHT31;63191;39.566;2.654;2023-05-07T06:32:11;31.65;40.76
74661;SHT31;63191;39.566;2.654;2023-05-07T06:34:39;31.61;39.79
74661;SHT31;63191;39.566;2.654;2023-05-07T06:37:05;31.74;39.51
74661;SHT31;63191;39.566;2.654;2023-05-07T06:39:32;31.86;39.14
74661;SHT31;63191;39.566;2.654;2023-05-07T06:41:59;31.83;38.90
74661;SHT31;63191;39.566;2.654;2023-05-07T06:44:27;31.05;39.79
74661;SHT31;63191;39.566;2.654;2023-05-07T06:46:52;29.93;41.25
74661;SHT31;63191;39.566;2.654;2023-05-07T06:49:18;28.98;42.76
74661;SHT31;63191;39.566;2.654;2023-05-07T06:51:44;28.17;44.23
74661;SHT31;63191;39.566;2.654;2023-05-07T06:54:10;27.52;45.43
74661;SHT31;63191;39.566;2.654;2023-05-07T06:56:36;26.93;46.58
74661;SHT31;63191;39.566;2.654;2023-05-07T06:59:01;26.50;47.47
74661;SHT31;63191;39.566;2.654;2023-05-07T07:01:28;26.03;48.30
74661;SHT31;63191;39.566;2.654;2023-05-07T07:03:54;25.61;49.11
74661;SHT31;63191;39.566;2.654;2023-05-07T07:06:20;25.31;49.85
74661;SHT31;63191;39.566;2.654;2023-05-07T07:08:46;25.05;50.22
74661;SHT31;63191;39.566;2.654;2023-05-07T07:11:11;24.78;50.48
74661;SHT31;63191;39.566;2.654;2023-05-07T07:13:37;24.54;51.09
74661;SHT31;63191;39.566;2.654;2023-05-07T07:16:03;24.37;51.61
74661;SHT31;63191;39.566;2.654;2023-05-07T07:18:29;24.30;51.90
74661;SHT31;63191;39.566;2.654;2023-05-07T07:20:55;24.26;51.98
74661;SHT31;63191;39.566;2.654;2023-05-07T07:23:20;24.21;51.81
74661;SHT31;63191;39.566;2.654;2023-05-07T07:25:46;24.14;51.84
74661;SHT31;63191;39.566;2.654;2023-05-07T07:28:12;24.09;51.87
74661;SHT31;63191;39.566;2.654;2023-05-07T07:30:38;24.03;51.73
74661;SHT31;63191;39.566;2.654;2023-05-07T07:33:04;23.97;51.70
74661;SHT31;63191;39.566;2.654;2023-05-07T07:35:31;23.88;51.78
74661;SHT31;63191;39.566;2.654;2023-05-07T07:38:20;23.82;52.06
74661;SHT31;63191;39.566;2.654;2023-05-07T07:40:47;23.82;52.16
74661;SHT31;63191;39.566;2.654;2023-05-07T07:43:12;23.81;52.34
74661;SHT31;63191;39.566;2.654;2023-05-07T07:45:38;23.76;52.73
74661;SHT31;63191;39.566;2.654;2023-05-07T07:48:05;23.75;52.68
74661;SHT31;63191;39.566;2.654;2023-05-07T07:50:33;23.77;52.53
74661;SHT31;63191;39.566;2.654;2023-05-07T07:53:00;23.80;53.07
74661;SHT31;63191;39.566;2.654;2023-05-07T07:55:28;23.87;53.63
74661;SHT31;63191;39.566;2.654;2023-05-07T07:57:56;23.91;53.82
74661;SHT31;63191;39.566;2.654;2023-05-07T08:00:21;23.97;53.71
74661;SHT31;63191;39.566;2.654;2023-05-07T08:02:47;24.05;53.54
74661;SHT31;63191;39.566;2.654;2023-05-07T08:05:13;24.17;53.17
74661;SHT31;63191;39.566;2.654;2023-05-07T08:07:40;24.27;52.24
74661;SHT31;63191;39.566;2.654;2023-05-07T08:10:06;24.41;51.69
74661;SHT31;63191;39.566;2.654;2023-05-07T08:12:32;24.58;51.45
74661;SHT31;63191;39.566;2.654;2023-05-07T08:14:57;24.74;50.55
74661;SHT31;63191;39.566;2.654;2023-05-07T08:17:23;24.85;50.07
74661;SHT31;63191;39.566;2.654;2023-05-07T08:19:51;24.96;49.85
74661;SHT31;63191;39.566;2.654;2023-05-07T08:22:16;25.10;49.19
74661;SHT31;63191;39.566;2.654;2023-05-07T08:24:43;25.25;48.82
74661;SHT31;63191;39.566;2.654;2023-05-07T08:27:09;25.39;48.28
74661;SHT31;63191;39.566;2.654;2023-05-07T08:29:35;25.55;47.45
74661;SHT31;63191;39.566;2.654;2023-05-07T08:32:01;25.66;46.31
74661;SHT31;63191;39.566;2.654;2023-05-07T08:34:27;25.74;45.63
74661;SHT31;63191;39.566;2.654;2023-05-07T08:36:52;25.82;45.32
74661;SHT31;63191;39.566;2.654;2023-05-07T08:39:18;25.94;44.79
74661;SHT31;63191;39.566;2.654;2023-05-07T08:41:45;26.04;43.93
74661;SHT31;63191;39.566;2.654;2023-05-07T08:44:12;26.06;43.12
74661;SHT31;63191;39.566;2.654;2023-05-07T08:46:41;26.06;42.80
74661;SHT31;63191;39.566;2.654;2023-05-07T08:49:08;26.06;42.83
74661;SHT31;63191;39.566;2.654;2023-05-07T08:51:34;26.03;42.62
74661;SHT31;63191;39.566;2.654;2023-05-07T08:54:01;26.01;42.65
74661;SHT31;63191;39.566;2.654;2023-05-07T08:56:27;26.01;42.00
74661;SHT31;63191;39.566;2.654;2023-05-07T08:58:54;26.00;42.08
74661;SHT31;63191;39.566;2.654;2023-05-07T09:01:23;25.94;41.85
74661;SHT31;63191;39.566;2.654;2023-05-07T09:03:50;25.86;42.02
74661;SHT31;63191;39.566;2.654;2023-05-07T09:06:17;25.77;42.17
74661;SHT31;63191;39.566;2.654;2023-05-07T09:08:49;25.70;42.04
74661;SHT31;63191;39.566;2.654;2023-05-07T09:11:19;25.65;42.04
74661;SHT31;63191;39.566;2.654;2023-05-07T09:13:46;25.67;42.05
74661;SHT31;63191;39.566;2.654;2023-05-07T09:16:24;25.72;41.85
74661;SHT31;63191;39.566;2.654;2023-05-07T09:18:51;25.75;41.23
74661;SHT31;63191;39.566;2.654;2023-05-07T09:21:19;25.77;40.85
74661;SHT31;63191;39.566;2.654;2023-05-07T09:23:51;25.81;40.92
74661;SHT31;63191;39.566;2.654;2023-05-07T09:26:17;25.88;42.23
74661;SHT31;63191;39.566;2.654;2023-05-07T09:28:43;25.91;42.83
74661;SHT31;63191;39.566;2.654;2023-05-07T09:31:11;25.97;43.13
74661;SHT31;63191;39.566;2.654;2023-05-07T09:33:38;26.33;43.43
74661;SHT31;63191;39.566;2.654;2023-05-07T09:36:05;26.89;42.56
74661;SHT31;63191;39.566;2.654;2023-05-07T09:38:33;27.26;42.08
74661;SHT31;63191;39.566;2.654;2023-05-07T09:43:34;27.90;40.80
74661;SHT31;63191;39.566;2.654;2023-05-07T09:46:03;28.38;40.57
74661;SHT31;63191;39.566;2.654;2023-05-07T09:48:34;28.96;39.63
74661;SHT31;63191;39.566;2.654;2023-05-07T09:51:06;29.73;39.31
74661;SHT31;63191;39.566;2.654;2023-05-07T09:53:57;30.82;37.43
74661;SHT31;63191;39.566;2.654;2023-05-07T09:56:26;31.59;36.01
74661;SHT31;63191;39.566;2.654;2023-05-07T09:58:52;32.06;34.94
74661;SHT31;63191;39.566;2.654;2023-05-07T10:01:22;31.92;34.63
74661;SHT31;63191;39.566;2.654;2023-05-07T10:03:51;31.94;34.97
74661;SHT31;63191;39.566;2.654;2023-05-07T10:06:21;32.08;33.93
74661;SHT31;63191;39.566;2.654;2023-05-07T10:08:49;32.17;33.27
74661;SHT31;63191;39.566;2.654;2023-05-07T10:11:17;32.35;33.15
74661;SHT31;63191;39.566;2.654;2023-05-07T10:13:44;32.36;33.09
74661;SHT31;63191;39.566;2.654;2023-05-07T10:16:11;32.29;33.17
74661;SHT31;63191;39.566;2.654;2023-05-07T10:18:37;32.65;33.17
74661;SHT31;63191;39.566;2.654;2023-05-07T10:21:39;33.11;32.12
74661;SHT31;63191;39.566;2.654;2023-05-07T10:24:06;33.34;32.17
74661;SHT31;63191;39.566;2.654;2023-05-07T10:26:39;33.12;32.91
74661;SHT31;63191;39.566;2.654;2023-05-07T10:29:15;32.68;32.55
74661;SHT31;63191;39.566;2.654;2023-05-07T10:35:15;31.72;33.20
74661;SHT31;63191;39.566;2.654;2023-05-07T10:37:48;31.48;32.89
74661;SHT31;63191;39.566;2.654;2023-05-07T10:40:14;31.38;32.85
74661;SHT31;63191;39.566;2.654;2023-05-07T10:42:58;31.35;33.16
74661;SHT31;63191;39.566;2.654;2023-05-07T10:45:26;31.39;34.01
74661;SHT31;63191;39.566;2.654;2023-05-07T10:50:38;31.76;33.38
74661;SHT31;63191;39.566;2.654;2023-05-07T10:55:44;32.14;33.42
74661;SHT31;63191;39.566;2.654;2023-05-07T10:58:24;32.24;31.82
74661;SHT31;63191;39.566;2.654;2023-05-07T11:00:56;32.33;31.58
74661;SHT31;63191;39.566;2.654;2023-05-07T11:03:26;32.53;31.25
74661;SHT31;63191;39.566;2.654;2023-05-07T11:06:12;32.85;30.68
74661;SHT31;63191;39.566;2.654;2023-05-07T11:08:52;33.13;29.24
74661;SHT31;63191;39.566;2.654;2023-05-07T11:17:07;32.85;29.85
74661;SHT31;63191;39.566;2.654;2023-05-07T11:24:55;33.04;29.52
74661;SHT31;63191;39.566;2.654;2023-05-07T11:27:24;33.01;29.24
74661;SHT31;63191;39.566;2.654;2023-05-07T11:29:51;32.80;29.37
74661;SHT31;63191;39.566;2.654;2023-05-07T11:32:24;32.50;29.35
74661;SHT31;63191;39.566;2.654;2023-05-07T11:34:55;32.19;29.61
74661;SHT31;63191;39.566;2.654;2023-05-07T11:37:24;31.95;30.05
74661;SHT31;63191;39.566;2.654;2023-05-07T11:40:05;31.75;30.61
74661;SHT31;63191;39.566;2.654;2023-05-07T11:42:36;31.46;30.49
74661;SHT31;63191;39.566;2.654;2023-05-07T11:45:04;31.16;30.99
74661;SHT31;63191;39.566;2.654;2023-05-07T11:47:32;30.85;31.65
74661;SHT31;63191;39.566;2.654;2023-05-07T11:50:05;30.54;32.35
74661;SHT31;63191;39.566;2.654;2023-05-07T11:52:33;30.23;32.69
74661;SHT31;63191;39.566;2.654;2023-05-07T11:55:01;29.83;33.34
74661;SHT31;63191;39.566;2.654;2023-05-07T11:57:29;29.43;34.06
74661;SHT31;63191;39.566;2.654;2023-05-07T11:59:56;29.04;34.86
74661;SHT31;63191;39.566;2.654;2023-05-07T12:02:23;28.66;36.09
74661;SHT31;63191;39.566;2.654;2023-05-07T12:04:51;28.30;39.49
74661;SHT31;63191;39.566;2.654;2023-05-07T12:07:17;27.84;41.31
74661;SHT31;63191;39.566;2.654;2023-05-07T12:09:44;27.36;43.00
74661;SHT31;63191;39.566;2.654;2023-05-07T12:12:11;26.96;43.90
74661;SHT31;63191;39.566;2.654;2023-05-07T12:14:44;26.58;44.77
74661;SHT31;63191;39.566;2.654;2023-05-07T12:17:11;26.19;44.39
74661;SHT31;63191;39.566;2.654;2023-05-07T12:19:39;25.84;43.13
74661;SHT31;63191;39.566;2.654;2023-05-07T12:22:07;25.56;43.17
74661;SHT31;63191;39.566;2.654;2023-05-07T12:24:44;25.31;43.92
74661;SHT31;63191;39.566;2.654;2023-05-07T12:27:15;25.08;45.05
74661;SHT31;63191;39.566;2.654;2023-05-07T12:29:48;24.89;45.51
74661;SHT31;63191;39.566;2.654;2023-05-07T12:32:21;24.72;44.97
74661;SHT31;63191;39.566;2.654;2023-05-07T12:34:50;24.59;45.01
74661;SHT31;63191;39.566;2.654;2023-05-07T12:37:22;24.52;45.03
74661;SHT31;63191;39.566;2.654;2023-05-07T12:40:03;24.48;47.27
74661;SHT31;63191;39.566;2.654;2023-05-07T12:42:39;24.30;51.73
74661;SHT31;63191;39.566;2.654;2023-05-07T12:45:11;24.01;53.28
74661;SHT31;63191;39.566;2.654;2023-05-07T12:47:39;23.77;55.23
74661;SHT31;63191;39.566;2.654;2023-05-07T12:50:10;23.62;55.26
74661;SHT31;63191;39.566;2.654;2023-05-07T12:52:36;23.62;55.46
74661;SHT31;63191;39.566;2.654;2023-05-07T12:55:05;23.74;55.12
74661;SHT31;63191;39.566;2.654;2023-05-07T12:57:39;23.92;53.62
74661;SHT31;63191;39.566;2.654;2023-05-07T13:00:07;24.23;53.10
74661;SHT31;63191;39.566;2.654;2023-05-07T13:02:36;24.66;52.20
74661;SHT31;63191;39.566;2.654;2023-05-07T13:05:04;25.17;50.11
74661;SHT31;63191;39.566;2.654;2023-05-07T13:07:32;25.74;48.59
74661;SHT31;63191;39.566;2.654;2023-05-07T13:09:58;26.45;46.82
74661;SHT31;63191;39.566;2.654;2023-05-07T13:12:25;27.21;45.21
74661;SHT31;63191;39.566;2.654;2023-05-07T13:14:51;28.01;42.71
74661;SHT31;63191;39.566;2.654;2023-05-07T13:17:18;28.58;41.73
74661;SHT31;63191;39.566;2.654;2023-05-07T13:19:43;28.95;40.58
74661;SHT31;63191;39.566;2.654;2023-05-07T13:22:09;29.32;39.74
74661;SHT31;63191;39.566;2.654;2023-05-07T13:24:37;29.74;38.79
74661;SHT31;63191;39.566;2.654;2023-05-07T13:27:03;30.25;38.16
74661;SHT31;63191;39.566;2.654;2023-05-07T13:29:29;30.70;37.08
74661;SHT31;63191;39.566;2.654;2023-05-07T13:31:57;31.00;36.75
74661;SHT31;63191;39.566;2.654;2023-05-07T13:34:22;31.27;36.89
74661;SHT31;63191;39.566;2.654;2023-05-07T13:36:50;32.04;35.75
74661;SHT31;63191;39.566;2.654;2023-05-07T13:39:15;33.00;35.28
74661;SHT31;63191;39.566;2.654;2023-05-07T13:41:41;33.05;35.59
74661;SHT31;63191;39.566;2.654;2023-05-07T13:44:07;32.53;36.43
74661;SHT31;63191;39.566;2.654;2023-05-07T13:46:33;31.90;36.52
74661;SHT31;63191;39.566;2.654;2023-05-07T13:48:58;31.26;36.69
74661;SHT31;63191;39.566;2.654;2023-05-07T13:51:24;30.76;37.16
74661;SHT31;63191;39.566;2.654;2023-05-07T13:53:50;30.39;38.40
74661;SHT31;63191;39.566;2.654;2023-05-07T13:56:17;30.24;38.97
74661;SHT31;63191;39.566;2.654;2023-05-07T13:58:43;30.22;38.52
74661;SHT31;63191;39.566;2.654;2023-05-07T14:01:11;30.20;37.88
74661;SHT31;63191;39.566;2.654;2023-05-07T14:03:37;30.25;37.75
74661;SHT31;63191;39.566;2.654;2023-05-07T14:06:05;30.49;36.76
74661;SHT31;63191;39.566;2.654;2023-05-07T14:08:31;30.78;37.28
74661;SHT31;63191;39.566;2.654;2023-05-07T14:10:56;31.10;37.58
74661;SHT31;63191;39.566;2.654;2023-05-07T14:13:22;31.08;37.98
74661;SHT31;63191;39.566;2.654;2023-05-07T14:15:48;30.96;39.00
74661;SHT31;63191;39.566;2.654;2023-05-07T14:18:14;30.82;39.23
74661;SHT31;63191;39.566;2.654;2023-05-07T14:20:41;30.79;39.81
74661;SHT31;63191;39.566;2.654;2023-05-07T14:23:08;30.91;39.38
74661;SHT31;63191;39.566;2.654;2023-05-07T14:25:34;30.99;38.85
74661;SHT31;63191;39.566;2.654;2023-05-07T14:28:00;30.95;37.84
74661;SHT31;63191;39.566;2.654;2023-05-07T14:30:26;30.85;37.57
74661;SHT31;63191;39.566;2.654;2023-05-07T14:32:51;30.77;39.40
74661;SHT31;63191;39.566;2.654;2023-05-07T14:35:17;30.70;39.53
74661;SHT31;63191;39.566;2.654;2023-05-07T14:37:43;30.60;39.11
74661;SHT31;63191;39.566;2.654;2023-05-07T14:40:09;30.40;39.08
74661;SHT31;63191;39.566;2.654;2023-05-07T14:42:35;30.16;38.93
74661;SHT31;63191;39.566;2.654;2023-05-07T14:45:01;29.90;39.12
74661;SHT31;63191;39.566;2.654;2023-05-07T14:47:27;29.67;39.21
74661;SHT31;63191;39.566;2.654;2023-05-07T14:49:54;29.35;39.79
74661;SHT31;63191;39.566;2.654;2023-05-07T14:52:20;29.16;39.26
74661;SHT31;63191;39.566;2.654;2023-05-07T14:54:45;28.92;39.38
74661;SHT31;63191;39.566;2.654;2023-05-07T14:57:12;28.68;40.03
74661;SHT31;63191;39.566;2.654;2023-05-07T14:59:41;28.53;40.79
74661;SHT31;63191;39.566;2.654;2023-05-07T15:02:07;28.40;41.24
74661;SHT31;63191;39.566;2.654;2023-05-07T15:04:36;28.30;41.08
74661;SHT31;63191;39.566;2.654;2023-05-07T15:07:03;28.17;41.01
74661;SHT31;63191;39.566;2.654;2023-05-07T15:09:29;28.07;41.51
74661;SHT31;63191;39.566;2.654;2023-05-07T15:11:55;27.95;41.12
74661;SHT31;63191;39.566;2.654;2023-05-07T15:14:21;27.86;40.40
74661;SHT31;63191;39.566;2.654;2023-05-07T15:16:47;27.87;39.99
74661;SHT31;63191;39.566;2.654;2023-05-07T15:19:13;27.91;39.74
74661;SHT31;63191;39.566;2.654;2023-05-07T15:21:42;27.96;39.60
74661;SHT31;63191;39.566;2.654;2023-05-07T15:24:08;28.04;39.51
74661;SHT31;63191;39.566;2.654;2023-05-07T15:26:33;28.10;39.31
74661;SHT31;63191;39.566;2.654;2023-05-07T15:28:59;28.27;39.30
74661;SHT31;63191;39.566;2.654;2023-05-07T15:31:27;28.40;38.43
74661;SHT31;63191;39.566;2.654;2023-05-07T15:33:54;28.49;38.22
74661;SHT31;63191;39.566;2.654;2023-05-07T15:36:21;28.57;37.34
74661;SHT31;63191;39.566;2.654;2023-05-07T15:38:47;28.52;37.04
74661;SHT31;63191;39.566;2.654;2023-05-07T15:41:12;28.43;37.23
74661;SHT31;63191;39.566;2.654;2023-05-07T15:43:46;28.34;37.30
74661;SHT31;63191;39.566;2.654;2023-05-07T15:46:17;28.31;37.32
74661;SHT31;63191;39.566;2.654;2023-05-07T15:48:53;28.26;37.49
74661;SHT31;63191;39.566;2.654;2023-05-07T15:51:20;28.24;37.75
74661;SHT31;63191;39.566;2.654;2023-05-07T15:53:46;28.20;37.69
74661;SHT31;63191;39.566;2.654;2023-05-07T15:56:13;28.16;37.89